Terminal Aerodrome Forecast
Issued by NWS Charleston, SC

Home | Current Version | Previous Version | Text Only | Print | Product List | Glossary On
Versions: 1 2 3 4 5 6 7 8 9 10 11 12 13 14 15 16 17 18 19 20 21 22 23 24 25 26 27 28 29 30
000
FTUS42 KCHS 182300
TAFCHS
TAF
KCHS 182322Z 1900/1924 06003KT P6SM SCT020
     FM191000 03003KT 6SM BR SCT008 BKN035
     FM191300 05008KT P6SM SCT025 BKN035
     FM191600 09012G17KT P6SM VCSH SCT025 BKN035=

USA.gov is the U.S. government's official web portal to all federal, state and local government web resources and services.